createdAt,value
2022-08-12T00:01:12.526Z,90.70
2022-08-12T00:03:58.616Z,90.80
2022-08-12T00:06:47.237Z,90.90
2022-08-12T00:09:33.460Z,91.00
2022-08-12T00:12:20.145Z,91.10
2022-08-12T00:15:07.771Z,91.20
2022-08-12T00:17:54.401Z,91.30
2022-08-12T00:20:40.791Z,91.40
2022-08-12T00:23:29.189Z,91.90
2022-08-12T00:26:23.130Z,91.70
2022-08-12T00:29:11.178Z,91.80
2022-08-12T00:31:57.682Z,91.90
2022-08-12T00:34:43.727Z,92.00
2022-08-12T00:37:31.871Z,92.10
2022-08-12T00:40:20.361Z,92.30
2022-08-12T00:42:49.104Z,92.40
2022-08-12T00:45:18.814Z,92.50
2022-08-12T00:47:47.903Z,92.70
2022-08-12T00:50:19.330Z,92.80
2022-08-12T00:52:49.373Z,92.90
2022-08-12T00:55:20.387Z,93.00
2022-08-12T00:57:52.072Z,93.20
2022-08-12T01:00:23.207Z,93.20
2022-08-12T01:02:55.741Z,93.40
2022-08-12T01:05:43.762Z,93.50
2022-08-12T01:08:45.124Z,93.60
2022-08-12T01:11:32.952Z,93.80
2022-08-12T01:14:03.593Z,93.90
2022-08-12T01:16:32.693Z,94.00
2022-08-12T01:19:03.951Z,94.10
2022-08-12T01:22:14.276Z,94.30
2022-08-12T01:24:57.367Z,94.50
2022-08-12T01:27:28.423Z,94.60
2022-08-12T01:29:58.978Z,94.70
2022-08-12T01:32:30.429Z,94.90
2022-08-12T01:35:07.195Z,95.00
2022-08-12T01:37:39.354Z,95.20
2022-08-12T01:40:31.647Z,95.30
2022-08-12T01:43:07.671Z,95.50
2022-08-12T01:45:43.130Z,95.60
2022-08-12T01:48:26.119Z,95.70
2022-08-12T01:51:06.103Z,96.00
2022-08-12T01:53:50.509Z,96.10
2022-08-12T01:56:25.410Z,96.30
2022-08-12T01:59:16.169Z,96.50
2022-08-12T02:01:46.620Z,97.00
2022-08-12T02:04:42.612Z,96.70
2022-08-12T02:07:38.426Z,96.90
2022-08-12T02:10:50.057Z,97.10
2022-08-12T02:13:49.574Z,97.20
2022-08-12T02:16:38.072Z,97.50
2022-08-12T02:19:22.880Z,97.60
2022-08-12T02:22:05.300Z,97.80
2022-08-12T02:24:35.491Z,98.00
2022-08-12T02:27:08.345Z,98.20
2022-08-12T02:29:38.770Z,98.40
2022-08-12T02:32:08.666Z,98.60
2022-08-12T02:34:38.495Z,98.80
2022-08-12T02:37:10.503Z,99.00
2022-08-12T02:39:45.774Z,99.20
2022-08-12T02:42:16.763Z,99.40
2022-08-12T02:44:52.240Z,99.70
2022-08-12T02:47:58.617Z,99.90
2022-08-12T02:50:14.819Z,99.90
2022-08-12T02:52:44.380Z,99.90
2022-08-12T02:55:28.613Z,99.90
2022-08-12T02:58:11.918Z,99.90
2022-08-12T03:00:44.100Z,99.90
2022-08-12T03:03:15.265Z,99.90
2022-08-12T03:05:52.439Z,99.90
2022-08-12T03:08:31.335Z,99.90
2022-08-12T03:11:11.810Z,99.90
2022-08-12T03:13:46.793Z,99.90
2022-08-12T03:16:17.249Z,99.90
2022-08-12T03:18:46.913Z,99.90
2022-08-12T03:21:55.417Z,99.90
2022-08-12T03:24:09.060Z,99.90
2022-08-12T03:26:38.938Z,99.90
2022-08-12T03:29:08.259Z,99.90
2022-08-12T03:31:38.254Z,99.90
2022-08-12T03:34:09.394Z,99.90
2022-08-12T03:36:40.863Z,99.90
2022-08-12T03:39:35.383Z,99.90
2022-08-12T03:42:22.340Z,99.90
2022-08-12T03:45:16.273Z,99.90
2022-08-12T03:48:13.398Z,99.90
2022-08-12T03:51:06.677Z,99.90
2022-08-12T03:53:53.055Z,99.90
2022-08-12T03:56:40.160Z,99.90
2022-08-12T03:59:26.743Z,99.90
2022-08-12T04:01:58.480Z,99.90
2022-08-12T04:04:34.801Z,99.90
2022-08-12T04:07:06.676Z,99.90
2022-08-12T04:09:36.104Z,99.90
2022-08-12T04:12:23.637Z,99.90
2022-08-12T04:14:57.603Z,99.90
2022-08-12T04:17:28.403Z,99.90
2022-08-12T04:19:59.622Z,99.90
2022-08-12T04:22:30.836Z,99.90
2022-08-12T04:25:02.417Z,99.90
2022-08-12T04:27:32.909Z,99.90
2022-08-12T04:30:30.565Z,99.90
2022-08-12T04:32:52.312Z,99.90
2022-08-12T04:35:24.168Z,99.90
2022-08-12T04:37:58.000Z,99.90
2022-08-12T04:40:31.475Z,99.20
2022-08-12T04:43:02.156Z,98.50
2022-08-12T04:45:31.678Z,97.80
2022-08-12T04:48:02.036Z,97.20
2022-08-12T04:50:35.408Z,96.80
2022-08-12T04:53:06.890Z,96.30
2022-08-12T04:55:38.975Z,95.80
2022-08-12T04:58:08.067Z,95.30
2022-08-12T05:00:37.967Z,94.80
2022-08-12T05:03:07.272Z,94.50
2022-08-12T05:05:38.850Z,94.10
2022-08-12T05:08:13.084Z,93.60
2022-08-12T05:10:42.034Z,93.20
2022-08-12T05:13:14.549Z,93.00
2022-08-12T05:16:04.715Z,92.90
2022-08-12T05:18:35.102Z,92.60
2022-08-12T05:21:10.251Z,92.40
2022-08-12T05:23:40.477Z,92.10
2022-08-12T05:26:09.331Z,91.60
2022-08-12T05:28:38.573Z,91.10
2022-08-12T05:31:07.458Z,90.90
2022-08-12T05:33:40.435Z,90.70
2022-08-12T05:36:12.798Z,90.40
2022-08-12T05:38:57.391Z,90.00
2022-08-12T05:41:28.992Z,89.10
2022-08-12T05:44:01.312Z,87.80
2022-08-12T05:46:31.858Z,86.50
2022-08-12T05:49:01.601Z,85.50
2022-08-12T05:51:40.534Z,84.70
2022-08-12T05:54:12.123Z,83.80
2022-08-12T05:56:41.625Z,83.00
2022-08-12T05:59:12.181Z,82.30
2022-08-12T06:02:08.744Z,81.50
2022-08-12T06:04:32.480Z,80.60
2022-08-12T06:08:00.206Z,80.20
2022-08-12T06:09:51.698Z,80.60
2022-08-12T06:12:23.451Z,80.70
2022-08-12T06:14:52.678Z,80.10
2022-08-12T06:17:21.544Z,78.80
2022-08-12T06:20:28.251Z,77.30
2022-08-12T06:22:40.807Z,76.00
2022-08-12T06:25:10.423Z,75.40
2022-08-12T06:28:07.914Z,74.20
2022-08-12T06:30:39.184Z,73.50
2022-08-12T06:33:25.059Z,72.50
2022-08-12T06:35:58.871Z,71.70
2022-08-12T06:38:30.718Z,71.30
2022-08-12T06:41:18.417Z,71.10
2022-08-12T06:44:04.911Z,70.80
2022-08-12T06:46:39.075Z,70.00
2022-08-12T06:49:13.434Z,69.20
2022-08-12T06:51:42.118Z,68.30
2022-08-12T06:54:29.847Z,67.70
2022-08-12T06:58:05.215Z,67.00
2022-08-12T06:59:51.171Z,66.60
2022-08-12T07:02:21.134Z,65.80
2022-08-12T07:04:49.852Z,65.40
2022-08-12T07:07:18.642Z,64.90
2022-08-12T07:10:04.464Z,64.50
2022-08-12T07:12:36.941Z,64.00
2022-08-12T07:15:06.208Z,63.70
2022-08-12T07:17:37.716Z,63.60
2022-08-12T07:20:29.463Z,64.20
2022-08-12T07:23:01.030Z,65.20
2022-08-12T07:25:40.839Z,66.10
2022-08-12T07:28:16.810Z,66.90
2022-08-12T07:30:49.680Z,67.50
2022-08-12T07:33:19.688Z,68.30
2022-08-12T07:35:48.872Z,68.60
2022-08-12T07:38:36.150Z,68.50
2022-08-12T07:41:14.445Z,68.00
2022-08-12T07:43:46.850Z,68.20
2022-08-12T07:46:18.309Z,68.90
2022-08-12T07:48:48.927Z,70.00
2022-08-12T07:51:25.405Z,71.10
2022-08-12T07:54:00.757Z,72.10
2022-08-12T07:56:33.898Z,73.10
2022-08-12T07:59:03.312Z,73.80
2022-08-12T08:01:32.903Z,74.20
2022-08-12T08:04:19.734Z,74.70
2022-08-12T08:06:49.533Z,75.30
2022-08-12T08:09:21.324Z,75.50
2022-08-12T08:12:09.399Z,75.60
2022-08-12T08:14:48.359Z,75.60
2022-08-12T08:17:18.925Z,75.50
2022-08-12T08:20:03.851Z,75.50
2022-08-12T08:22:41.354Z,75.10
2022-08-12T08:25:34.264Z,74.20
2022-08-12T08:28:05.957Z,73.40
2022-08-12T08:30:38.383Z,72.50
2022-08-12T08:33:22.927Z,71.60
2022-08-12T08:35:54.269Z,70.90
2022-08-12T08:38:32.748Z,70.30
2022-08-12T08:42:19.265Z,69.10
2022-08-12T08:44:13.321Z,67.70
2022-08-12T08:46:43.777Z,66.70
2022-08-12T08:49:13.135Z,66.30
2022-08-12T08:51:42.698Z,65.80
2022-08-12T08:54:12.690Z,64.00
2022-08-12T08:56:44.447Z,63.50
2022-08-12T08:59:15.528Z,62.70
2022-08-12T09:01:45.141Z,62.50
2022-08-12T09:05:07.391Z,61.40
2022-08-12T09:07:17.093Z,60.60
2022-08-12T09:12:54.901Z,60.90
2022-08-12T09:15:35.577Z,60.70
2022-08-12T09:18:08.960Z,60.80
2022-08-12T09:20:40.012Z,61.10
2022-08-12T09:28:53.214Z,61.00
2022-08-12T09:32:06.888Z,59.60
2022-08-12T09:34:29.259Z,59.50
2022-08-12T09:37:20.434Z,59.80
2022-08-12T09:40:01.743Z,60.00
2022-08-12T09:43:15.244Z,59.70
2022-08-12T09:46:20.201Z,59.70
2022-08-12T09:48:44.683Z,60.00
2022-08-12T09:51:24.423Z,60.50
2022-08-12T09:54:30.801Z,60.80
2022-08-12T09:57:03.149Z,61.20
2022-08-12T10:00:17.835Z,61.70
2022-08-12T10:02:45.432Z,62.90
2022-08-12T10:06:19.260Z,62.40
2022-08-12T10:08:13.957Z,62.50
2022-08-12T10:11:04.475Z,62.80
2022-08-12T10:13:44.774Z,63.00
2022-08-12T10:16:21.855Z,63.10
2022-08-12T10:18:54.150Z,63.40
2022-08-12T10:21:35.847Z,63.80
2022-08-12T10:24:08.391Z,64.00
2022-08-12T10:26:56.242Z,64.20
2022-08-12T10:30:38.909Z,64.30
2022-08-12T10:32:44.431Z,64.40
2022-08-12T10:35:16.145Z,65.40
2022-08-12T10:38:34.201Z,64.50
2022-08-12T10:40:55.866Z,64.80
2022-08-12T10:43:56.510Z,65.10
2022-08-12T10:46:31.202Z,65.20
2022-08-12T10:49:06.554Z,65.00
2022-08-12T10:52:33.144Z,64.80
2022-08-12T10:54:43.788Z,64.40
2022-08-12T10:58:12.994Z,64.10
2022-08-12T11:00:36.046Z,64.20
2022-08-12T11:04:25.443Z,63.90
2022-08-12T11:07:05.911Z,63.70
2022-08-12T11:08:43.218Z,63.70
2022-08-12T11:12:37.053Z,63.70
2022-08-12T11:14:13.027Z,63.80
2022-08-12T11:17:34.886Z,63.70
2022-08-12T11:19:46.587Z,63.60
2022-08-12T11:22:18.204Z,63.20
2022-08-12T11:24:53.797Z,63.00
2022-08-12T11:27:25.652Z,62.40
2022-08-12T11:30:02.046Z,62.30
2022-08-12T11:32:38.449Z,62.60
2022-08-12T11:35:11.536Z,63.00
2022-08-12T11:37:58.846Z,63.30
2022-08-12T11:40:28.734Z,63.80
2022-08-12T11:43:18.837Z,64.00
2022-08-12T11:45:53.008Z,64.00
2022-08-12T11:48:26.884Z,63.70
2022-08-12T11:50:56.959Z,63.10
2022-08-12T11:53:59.457Z,62.50
2022-08-12T11:56:14.187Z,62.40
2022-08-12T12:02:01.963Z,62.00
2022-08-12T12:04:29.022Z,62.00
2022-08-12T12:07:06.765Z,62.10
2022-08-12T12:09:53.000Z,62.40
2022-08-12T12:12:25.026Z,63.00
2022-08-12T12:14:56.148Z,63.30
2022-08-12T12:17:38.062Z,63.60
2022-08-12T12:20:10.042Z,64.10
2022-08-12T12:22:41.535Z,64.40
2022-08-12T12:25:14.156Z,64.70
2022-08-12T12:28:05.889Z,64.90
2022-08-12T12:30:37.627Z,64.70
2022-08-12T12:33:07.469Z,64.60
2022-08-12T12:36:16.612Z,64.30
2022-08-12T12:38:27.568Z,64.10
2022-08-12T12:40:56.426Z,63.90
2022-08-12T12:43:28.764Z,63.90
2022-08-12T12:46:13.360Z,63.80
2022-08-12T12:48:44.623Z,64.00
2022-08-12T12:51:49.251Z,64.20
2022-08-12T12:54:10.574Z,64.20
2022-08-12T12:56:43.013Z,64.10
2022-08-12T12:59:55.056Z,64.00
2022-08-12T13:02:07.694Z,63.60
2022-08-12T13:04:38.201Z,62.80
2022-08-12T13:07:08.087Z,62.40
2022-08-12T13:09:37.101Z,62.20
2022-08-12T13:12:10.795Z,61.50
2022-08-12T13:14:40.360Z,61.00
2022-08-12T13:17:14.820Z,61.00
2022-08-12T13:19:49.916Z,60.90
2022-08-12T13:22:21.264Z,60.80
2022-08-12T13:24:56.480Z,60.70
2022-08-12T13:27:35.282Z,60.40
2022-08-12T13:30:11.071Z,60.00
2022-08-12T13:32:56.851Z,60.10
2022-08-12T13:35:33.417Z,60.20
2022-08-12T13:38:26.592Z,60.40
2022-08-12T13:41:03.191Z,60.50
2022-08-12T13:43:40.273Z,60.50
2022-08-12T13:46:12.307Z,60.20
2022-08-12T13:48:44.779Z,60.40
2022-08-12T13:51:14.381Z,60.60
2022-08-12T13:53:59.212Z,61.00
2022-08-12T13:56:35.329Z,61.20
2022-08-12T13:59:07.966Z,62.30
2022-08-12T14:01:40.396Z,61.30
2022-08-12T14:04:11.544Z,62.40
2022-08-12T14:06:41.175Z,61.90
2022-08-12T14:09:17.483Z,61.80
2022-08-12T14:11:58.518Z,61.80
2022-08-12T14:14:31.572Z,61.90
2022-08-12T14:17:10.411Z,61.90
2022-08-12T14:20:01.135Z,62.10
2022-08-12T14:22:32.126Z,62.20
2022-08-12T14:25:02.678Z,62.10
2022-08-12T14:28:06.105Z,62.20
2022-08-12T14:30:24.072Z,62.10
2022-08-12T14:32:58.085Z,62.10
2022-08-12T14:35:28.166Z,62.10
2022-08-12T14:38:17.719Z,62.20
2022-08-12T14:40:52.476Z,62.20
2022-08-12T14:43:21.856Z,62.50
2022-08-12T14:45:54.341Z,62.70
2022-08-12T14:48:24.711Z,63.10
2022-08-12T14:52:07.888Z,63.30
2022-08-12T14:55:18.158Z,63.70
2022-08-12T14:59:57.093Z,64.10
2022-08-12T15:02:29.710Z,64.20
2022-08-12T15:05:03.646Z,64.30
2022-08-12T15:07:49.427Z,64.40
2022-08-12T15:10:31.564Z,64.50
2022-08-12T15:13:07.361Z,64.60
2022-08-12T15:15:43.804Z,64.90
2022-08-12T15:18:15.453Z,65.00
2022-08-12T15:20:51.418Z,65.10
2022-08-12T15:23:23.215Z,65.30
2022-08-12T15:26:02.633Z,65.50
2022-08-12T15:28:34.467Z,65.60
2022-08-12T15:31:21.449Z,65.60
2022-08-12T15:33:57.428Z,65.60
2022-08-12T15:36:50.250Z,65.70
2022-08-12T15:39:17.821Z,65.70
2022-08-12T15:41:49.843Z,65.80
2022-08-12T15:44:41.624Z,65.90
2022-08-12T15:47:09.052Z,66.10
2022-08-12T15:49:54.141Z,66.00
2022-08-12T15:52:27.948Z,65.90
2022-08-12T15:55:04.946Z,66.00
2022-08-12T15:57:35.579Z,65.90
2022-08-12T16:00:09.190Z,65.80
2022-08-12T16:02:52.323Z,65.60
2022-08-12T16:06:17.255Z,65.50
2022-08-12T16:08:17.434Z,65.40
2022-08-12T16:10:50.068Z,65.50
2022-08-12T16:13:32.409Z,65.70
2022-08-12T16:16:04.012Z,65.70
2022-08-12T16:18:41.129Z,66.00
2022-08-12T16:21:52.244Z,66.20
2022-08-12T16:24:08.469Z,66.40
2022-08-12T16:26:40.844Z,66.50
2022-08-12T16:29:15.136Z,66.60
2022-08-12T16:31:45.286Z,66.70
2022-08-12T16:34:41.960Z,66.80
2022-08-12T16:37:07.885Z,66.80
2022-08-12T16:39:59.836Z,66.90
2022-08-12T16:42:28.834Z,67.00
2022-08-12T16:45:02.056Z,67.10
2022-08-12T16:47:57.845Z,67.10
2022-08-12T16:50:21.868Z,67.10
2022-08-12T16:53:03.479Z,67.10
2022-08-12T16:55:42.447Z,67.20
2022-08-12T16:58:27.892Z,67.30
2022-08-12T17:00:57.713Z,67.40
2022-08-12T17:03:29.105Z,67.30
2022-08-12T17:05:59.435Z,67.30
2022-08-12T17:08:28.936Z,67.40
2022-08-12T17:10:58.019Z,67.50
2022-08-12T17:13:28.787Z,67.50
2022-08-12T17:16:05.454Z,67.70
2022-08-12T17:18:43.851Z,67.70
2022-08-12T17:21:41.350Z,67.80
2022-08-12T17:24:16.612Z,67.90
2022-08-12T17:26:49.664Z,68.10
2022-08-12T17:29:32.140Z,68.20
2022-08-12T17:32:11.574Z,68.40
2022-08-12T17:34:58.352Z,68.50
2022-08-12T17:37:29.338Z,68.70
2022-08-12T17:40:15.210Z,68.80
2022-08-12T17:42:48.209Z,69.00
2022-08-12T17:45:19.688Z,69.10
2022-08-12T17:48:04.568Z,69.40
2022-08-12T17:50:36.430Z,69.60
2022-08-12T17:53:08.036Z,70.00
2022-08-12T17:55:40.234Z,70.30
2022-08-12T17:58:14.248Z,70.60
2022-08-12T18:00:47.218Z,70.80
2022-08-12T18:04:05.207Z,71.10
2022-08-12T18:06:13.680Z,71.40
2022-08-12T18:08:53.692Z,71.90
2022-08-12T18:12:05.661Z,72.20
2022-08-12T18:14:32.327Z,72.70
2022-08-12T18:17:02.637Z,73.20
2022-08-12T18:19:34.191Z,73.60
2022-08-12T18:22:22.140Z,73.90
2022-08-12T18:25:02.411Z,74.20
2022-08-12T18:27:44.621Z,74.60
2022-08-12T18:30:28.964Z,75.00
2022-08-12T18:33:03.535Z,75.40
2022-08-12T18:35:46.869Z,75.70
2022-08-12T18:38:22.643Z,76.00
2022-08-12T18:41:21.307Z,76.40
2022-08-12T18:44:02.634Z,76.60
2022-08-12T18:46:53.702Z,77.10
2022-08-12T18:49:39.733Z,77.50
2022-08-12T18:52:11.588Z,77.90
2022-08-12T18:54:49.763Z,78.40
2022-08-12T18:58:06.890Z,78.80
2022-08-12T19:00:21.557Z,79.60
2022-08-12T19:02:53.305Z,80.40
2022-08-12T19:05:45.809Z,80.70
2022-08-12T19:08:14.301Z,81.10
2022-08-12T19:10:50.672Z,81.30
2022-08-12T19:13:39.011Z,81.70
2022-08-12T19:16:11.391Z,81.90
2022-08-12T19:18:44.879Z,82.10
2022-08-12T19:21:16.983Z,82.40
2022-08-12T19:24:10.625Z,82.60
2022-08-12T19:26:39.137Z,82.90
2022-08-12T19:29:08.724Z,83.40
2022-08-12T19:31:57.875Z,83.10
2022-08-12T19:37:27.429Z,83.00
2022-08-12T19:40:20.279Z,83.00
2022-08-12T19:43:01.087Z,83.10
2022-08-12T19:45:43.619Z,83.10
2022-08-12T19:48:19.356Z,83.60
2022-08-12T19:50:50.681Z,83.50
2022-08-12T19:53:24.291Z,83.60
2022-08-12T19:55:55.146Z,84.20
2022-08-12T19:58:27.182Z,84.30
2022-08-12T20:00:56.564Z,84.80
2022-08-12T20:03:40.514Z,85.10
2022-08-12T20:06:13.785Z,85.30
2022-08-12T20:08:49.366Z,85.50
2022-08-12T20:12:09.643Z,85.50
2022-08-12T20:14:18.579Z,85.50
2022-08-12T20:16:52.934Z,85.60
2022-08-12T20:19:52.331Z,85.60
2022-08-12T20:22:24.015Z,85.60
2022-08-12T20:25:01.540Z,85.70
2022-08-12T20:28:02.750Z,85.80
2022-08-12T20:30:37.335Z,85.90
2022-08-12T20:33:17.378Z,86.00
2022-08-12T20:36:13.528Z,85.90
2022-08-12T20:38:40.468Z,86.00
2022-08-12T20:41:17.418Z,86.10
2022-08-12T20:43:51.863Z,86.20
2022-08-12T20:46:21.619Z,86.20
2022-08-12T20:48:54.795Z,86.40
2022-08-12T20:51:24.454Z,86.50
2022-08-12T20:53:59.583Z,86.50
2022-08-12T20:56:34.528Z,86.60
2022-08-12T20:59:06.123Z,86.60
2022-08-12T21:01:46.308Z,86.80
2022-08-12T21:04:36.568Z,86.80
2022-08-12T21:07:08.328Z,86.80
2022-08-12T21:09:42.119Z,86.80
2022-08-12T21:12:31.066Z,86.90
2022-08-12T21:15:24.308Z,86.90
2022-08-12T21:18:11.872Z,86.90
2022-08-12T21:20:52.720Z,87.00
2022-08-12T21:23:22.970Z,87.10
2022-08-12T21:25:52.648Z,87.30
2022-08-12T21:28:30.924Z,87.30
2022-08-12T21:32:36.168Z,87.30
2022-08-12T21:34:07.855Z,87.40
2022-08-12T21:36:48.170Z,87.50
2022-08-12T21:39:21.350Z,87.60
2022-08-12T21:41:53.350Z,87.80
2022-08-12T21:45:45.457Z,87.80
2022-08-12T21:47:19.890Z,88.00
2022-08-12T21:49:55.756Z,88.20
2022-08-12T21:52:35.570Z,88.40
2022-08-12T21:55:07.979Z,88.40
2022-08-12T21:57:50.542Z,88.50
2022-08-12T22:00:33.031Z,88.60
2022-08-12T22:04:01.449Z,88.70
2022-08-12T22:06:31.847Z,88.90
2022-08-12T22:09:16.299Z,88.90
2022-08-12T22:11:49.203Z,89.20
2022-08-12T22:14:28.644Z,89.30
2022-08-12T22:17:01.343Z,89.60
2022-08-12T22:19:34.875Z,89.80
2022-08-12T22:22:05.526Z,89.80
2022-08-12T22:24:35.639Z,90.30
2022-08-12T22:27:22.927Z,90.00
2022-08-12T22:30:16.674Z,90.10
2022-08-12T22:32:49.873Z,90.20
2022-08-12T22:35:55.635Z,90.30
2022-08-12T22:38:26.692Z,90.30
2022-08-12T22:41:00.864Z,90.40
2022-08-12T22:44:00.314Z,90.50
2022-08-12T22:46:53.679Z,90.60
2022-08-12T22:49:44.766Z,90.60
2022-08-12T22:52:18.654Z,90.70
2022-08-12T22:55:02.770Z,90.80
2022-08-12T22:57:49.224Z,90.90
2022-08-12T23:00:27.188Z,91.00
2022-08-12T23:03:02.761Z,91.00
2022-08-12T23:06:09.806Z,91.20
2022-08-12T23:08:31.591Z,91.20
2022-08-12T23:11:00.830Z,91.20
2022-08-12T23:13:54.727Z,91.30
2022-08-12T23:16:31.627Z,91.40
2022-08-12T23:19:10.613Z,91.50
2022-08-12T23:22:04.870Z,91.60
2022-08-12T23:24:41.051Z,91.70
2022-08-12T23:27:51.002Z,91.70
2022-08-12T23:30:32.215Z,92.20
2022-08-12T23:33:13.203Z,91.90
2022-08-12T23:36:02.227Z,92.00
2022-08-12T23:38:34.652Z,92.10
2022-08-12T23:41:06.056Z,92.20
2022-08-12T23:43:40.428Z,92.40
2022-08-12T23:46:18.725Z,92.60
2022-08-12T23:48:51.636Z,92.70
2022-08-12T23:51:25.365Z,92.90
2022-08-12T23:53:59.814Z,93.00
2022-08-12T23:56:33.650Z,93.10
2022-08-12T23:59:03.437Z,93.10
